Tonopah, Nevada Weather observations

Data are for observation ending at time listed.
 Day   Time    Ave.   Ave.  Ave.  Vector   Max.   Stn.    Total    Solar   Ave.  
  of    of     Air    Rel.  Wind   Wind    Wind   Baro.  Precip.   Rad.    Soil  
Year   Day     Temp.  Hum.  Speed  Dir.    Gust   Pres.                    Temp. 
2015   (PST)    F      %     mph   deg.    mph     mb.     in.     W/m2     F   
------------------------------------------------------------------------------
 107    7:30   45.8    30    6.6   281     10.7   815.8    0.00     450    47.2
 107    7:40   45.7    30    6.2   288      9.9   815.9    0.00     490    47.3
 107    7:50   45.7    30    6.6   277     11.0   815.9    0.00     528    47.4
 107    8:00   45.5    28    7.4   275     11.1   815.9    0.00     566    47.6
 107    8:10   45.7    28    7.8   286     11.7   815.9    0.00     602    47.8
 107    8:20   46.2    28    7.0   296     10.5   815.9    0.00     639    48.0
 107    8:30   47.4    28    6.6   282     10.8   815.9    0.00     673    48.2
 107    8:40   47.7    29    6.8   293     10.6   815.9    0.00     707    48.4
 107    8:50   48.3    29    7.5   290     12.6   815.9    0.00     739    48.7
 107    9:00   49.2    29    8.4   293     12.7   815.9    0.00     771    48.9
 107    9:10   49.8    28    8.5   287     14.0   815.8    0.00     800    49.2
 107    9:20   50.7    27    9.6   280     15.5   815.8    0.00     829    49.5
 107    9:30   51.3    26   10.3   286     16.5   815.7    0.00     856    49.8
 107    9:40   51.8    26    9.7   290     14.9   815.7    0.00     882    50.1
 107    9:50   52.0    26   10.7   294     19.6   815.7    0.00     905    50.4
 107   10:00   52.2    25   10.3   284     17.6   815.6    0.00     927    50.6
 107   10:10   52.9    24   10.5   286     17.1   815.6    0.00     948    50.9
 107   10:20   52.9    24    9.3   301     14.8   815.6    0.00     966    51.2
 107   10:30   53.1    24   10.3   283     16.4   815.6    0.00     982    51.5
 107   10:40   54.2    23   11.2   290     19.6   815.5    0.00     994    51.9
 107   10:50   54.9    23   11.0   299     17.1   815.5    0.00    1004    52.2
 107   11:00   55.1    22   10.3   292     16.8   815.3    0.00    1017    52.5
 107   11:10   55.3    22   10.7   278     19.3   815.2    0.00    1027    52.8
 107   11:20   55.5    22   11.3   281     18.6   815.0    0.00    1033    53.2
 107   11:30   56.3    21   11.5   295     19.3   814.9    0.00    1036    53.5
 107   11:40   57.4    20   11.1   300     18.7   814.7    0.00    1035    53.9
 107   11:50   57.3    20   10.9   295     19.7   814.6    0.00    1036    54.2
 107   12:00   57.5    20   10.9   298     23.5   814.5    0.00    1035    54.6
 107   12:10   58.3    19   10.8   284     18.0   814.4    0.00    1034    55.0
 107   12:20   59.2    18   11.6   291     23.7   814.2    0.00    1028    55.3
 107   12:30   59.6    18   12.9   283     22.0   814.1    0.00    1023    55.7
 107   12:40   59.8    18   10.8   298     18.9   813.9    0.00    1013    56.0
 107   12:50   60.6    17   10.3   295     19.5   813.8    0.00    1000    56.3
 107   13:00   61.0    16   11.5   304     20.4   813.7    0.00     990    56.7
 107   13:10   61.0    16   11.3   304     20.2   813.6    0.00     978    57.0
 107   13:20   61.2    16   10.6   281     20.3   813.6    0.00     966    57.4
 107   13:30   62.2    15   10.9   299     19.5   813.4    0.00     945    57.7
 107   13:40   62.2    14   12.3   304     23.1   813.3    0.00     927    58.0
 107   13:50   62.5    14   15.7   295     28.4   813.2    0.00     909    58.2
 107   14:00   62.5    14   13.0   299     23.9   813.3    0.00     888    58.5
 107   14:10   62.7    14   11.6   310     22.2   813.2    0.00     865    58.8
 107   14:20   62.5    14   13.1   303     23.2   813.1    0.00     840    59.0
 107   14:30   62.9    14   11.8   295     23.3   813.0    0.00     818    59.2
 107   14:40   63.2    14   10.4   288     16.8   812.9    0.00     790    59.5
 107   14:50   63.4    14   11.1   290     18.0   812.8    0.00     759    59.6
 107   15:00   63.6    13   13.1   281     22.4   812.6    0.00     732    59.8
 107   15:10   63.2    13   12.8   300     19.7   812.5    0.00     699    59.9
 107   15:20   63.6    13    9.9   296     19.6   812.5    0.00     666    60.1
 107   15:30   63.4    13   11.6   299     19.4   812.5    0.00     633    60.2
 107   15:40   63.6    13   11.8   296     20.8   812.5    0.00     600    60.3
 107   15:50   63.4    14   10.3   291     21.8   812.5    0.00     566    60.4
 107   16:00   64.2    13   10.4   297     22.7   812.4    0.00     529    60.4
 107   16:10   64.1    12   10.2   300     18.3   812.4    0.00     493    60.5
 107   16:20   64.0    12   10.2   306     18.1   812.4    0.00     456    60.4
 107   16:30   64.0    13   10.2   309     18.8   812.3    0.00     418    60.4
 107   16:40   63.9    13   11.2   302     16.7   812.4    0.00     380    60.4
 107   16:50   63.8    13    9.4   294     15.6   812.4    0.00     344    60.3
 107   17:00   63.6    13   11.7   302     19.6   812.4    0.00     305    60.2
 107   17:10   63.0    14   11.2   297     18.9   812.3    0.00     267    60.2
 107   17:20   62.7    14   11.4   293     19.5   812.3    0.00     230    60.1
 107   17:30   62.3    14   10.6   296     18.3   812.4    0.00     194    60.0
 107   17:40   62.5    14    8.7   287     17.0   812.4    0.00     161    59.9
 107   17:50   62.0    14   10.2   298     15.8   812.4    0.00     127    59.8
 107   18:00   61.7    14    9.8   298     16.8   812.5    0.00      85    59.6
 107   18:10   60.9    14   10.2   297     17.2   812.6    0.00      49    59.5
 107   18:20   60.1    15   10.5   299     18.6   812.6    0.00      20    59.4
 107   18:30   59.5    15   10.1   296     17.0   812.6    0.00       8    59.3
 107   18:40   58.9    15    8.8   298     14.7   812.7    0.00       3    59.1
 107   18:50   58.1    16    7.5   302     13.7   812.8    0.00       0    59.0
 107   19:00   57.3    16    8.0   302     12.4   812.8    0.00       0    58.9
 107   19:10   56.8    16    9.0   304     15.0   813.0    0.00       0    58.8
 107   19:20   56.2    17    8.2   301     13.8   813.1    0.00       0    58.6
 107   19:30   55.4    17    7.0   297     11.8   813.3    0.00       0    58.5
 107   19:40   54.5    18    5.8   286      7.9   813.4    0.00       0    58.3
 107   19:50   53.6    18    4.7   288      6.9   813.5    0.00       0    58.2
 107   20:00   53.0    18    3.9   292      6.6   813.7    0.00       0    58.1
 107   20:10   52.6    19    4.1   294      7.2   813.8    0.00       0    57.9
 107   20:20   52.6    19    4.8   295      7.7   813.9    0.00       0    57.8
 107   20:30   52.8    18    5.0   298      9.1   814.0    0.00       0    57.6
 107   20:40   52.4    19    3.8   286      5.6   814.0    0.00       0    57.4
 107   20:50   52.0    19    5.6   278     11.5   814.1    0.00       0    57.3
 107   21:00   52.0    19    4.8   316      9.1   814.2    0.00       0    57.1
 107   21:10   50.8    20    4.4   292      6.1   814.2    0.00       0    57.0
 107   21:20   50.8    20    4.9   277      7.5   814.2    0.00       0    56.8
 107   21:30   50.7    20    4.2   271      5.1   814.2    0.00       0    56.7
 107   21:40   50.2    20    5.1   262      6.9   814.1    0.00       0    56.6
 107   21:50   51.0    20    4.7   274      7.7   814.2    0.00       0    56.4
 107   22:00   50.6    20    3.6   286      5.0   814.3    0.00       0    56.2
 107   22:10   49.9    21    2.6   303      4.1   814.4    0.00       0    56.1
 107   22:20   49.6    21    2.4   304      3.1   814.4    0.00       0    56.0
 107   22:30   49.2    21    3.1   282      4.7   814.5    0.00       0    55.8
 107   22:40   48.6    21    2.2   313      3.7   814.5    0.00       0    55.7
 107   22:50   48.5    21    2.6   264      3.7   814.4    0.00       0    55.5
 107   23:00   47.9    21    2.3   270      3.3   814.4    0.00       0    55.4
 107   23:10   47.3    22    1.6   270      2.8   814.5    0.00       0    55.2
 107   23:20   46.7    22    1.0    12      2.9   814.5    0.00       0    55.1
 107   23:30   45.1    23    0.4    84      1.7   814.6    0.00       0    55.0
 107   23:40   44.5    24    1.3    66      2.3   814.6    0.00       0    54.8
 107   23:50   45.0    24    0.9    75      2.6   814.5    0.00       0    54.6
 108    0:00   45.9    23    0.4    88      0.9   814.5    0.00       0    54.5
 108    0:10   44.9    23    1.1   172      3.9   814.5    0.00       0    54.4
 108    0:20   44.9    23    0.7     3      3.2   814.4    0.00       0    54.2
 108    0:30   45.3    23    1.2    12      3.0   814.4    0.00       0    54.1
 108    0:40   44.7    24    0.4    50      1.0   814.2    0.00       0    53.9
 108    0:50   44.9    23    1.3   197      2.9   814.2    0.00       0    53.8
 108    1:00   43.0    25    1.7   131      3.1   814.1    0.00       0    53.6
 108    1:10   43.9    24    0.6    72      2.3   814.1    0.00       0    53.5
 108    1:20   44.3    24    0.3   130      1.9   814.0    0.00       0    53.3
 108    1:30   44.1    24    0.8   246      3.3   814.0    0.00       0    53.2
 108    1:40   43.3    24    0.7   113      3.0   814.0    0.00       0    53.1
 108    1:50   42.9    25    1.7   111      2.9   814.0    0.00       0    52.9
 108    2:00   43.8    24    1.5   139      2.9   813.9    0.00       0    52.8
 108    2:10   42.6    25    1.1   108      2.5   813.9    0.00       0    52.7
 108    2:20   42.5    25    1.3   343      2.9   814.0    0.00       0    52.5
 108    2:30   42.9    25    0.5    44      2.0   813.9    0.00       0    52.4
 108    2:40   42.9    25    0.2    41      1.2   813.9    0.00       0    52.3
 108    2:50   42.0    26    1.2    25      2.2   813.9    0.00       0    52.1
 108    3:00   42.1    26    0.9   347      2.0   813.9    0.00       0    52.0
 108    3:10   42.6    26    1.8   289      3.8   813.9    0.00       0    51.9
 108    3:20   42.5    26    2.4   291      3.8   813.9    0.00       0    51.7
 108    3:30   43.7    25    4.0   273      6.3   814.0    0.00       0    51.6
 108    3:40   43.9    25    2.9   264      5.0   814.0    0.00       0    51.5
 108    3:50   42.9    26    1.1   270      4.3   814.0    0.00       0    51.4
 108    4:00   42.0    27    0.5   290      1.7   814.0    0.00       0    51.2
 108    4:10   42.2    27    2.5   268      4.8   814.0    0.00       0    51.1
 108    4:20   42.4    26    1.5   288      3.2   814.0    0.00       0    51.0
 108    4:30   41.5    28    1.6   295      2.7   814.0    0.00       0    50.9
 108    4:40   42.3    27    2.0   292      2.8   814.0    0.00       0    50.8
 108    4:50   43.3    25    3.5   277      5.3   814.2    0.00       0    50.7
 108    5:00   43.1    26    3.3   296      4.0   814.2    0.00       0    50.6
 108    5:10   42.5    26    2.2   289      3.7   814.2    0.00       3    50.5
 108    5:20   42.2    27    1.3   288      2.2   814.3    0.00       7    50.4
 108    5:30   41.7    27    1.6   283      3.5   814.4    0.00      13    50.3
 108    5:40   42.4    26    2.7   274      6.6   814.4    0.00      18    50.2
 108    5:50   44.9    24    3.4   288      6.7   814.4    0.00      55    50.1
 108    6:00   46.7    23    3.9   283      6.1   814.4    0.00     116    50.0
 108    6:10   48.4    22    4.9   274      7.0   814.5    0.00     152    49.9
 108    6:20   49.4    21    4.6   276      6.3   814.5    0.00     186    49.9
 108    6:30   50.3    20    4.5   274      7.1   814.6    0.00     222    49.8
 108    6:40   50.6    20    5.5   282      8.1   814.6    0.00     259    49.8
 108    6:50   50.6    20    6.0   278      8.2   814.6    0.00     297    49.8
 108    7:00   51.5    19    5.6   289      8.6   814.7    0.00     336    49.8
 108    7:10   52.2    19    6.2   292     10.3   814.8    0.00     376    49.8
 108    7:20   52.9    18    6.6   290      9.5   814.8    0.00     415    49.9

Return to Tonopah, Nevada graphs page.


Western Regional Climate Center,wrcc@dri.edu